Mount Carroll, IL

8:50 AM CDT on September 22, 2014 (GMT -0500)
Aspen Drive | Change Station
CLOSE
Current Station
Personal Weather Station
Location: Mt. Carroll, IL
Elevation: 810 ft
Nearby Weather Stations
Active Advisory: Special Statement

Elev 810 ft 42.09 °N, 89.98 °W | Updated 2 seconds ago

Clear
Clear
46.4 °F
Feels Like 46 °F
N
0.0
Wind Variable Wind from NNW
Gusts 2.0 mph

Today
High -- | Low -- °F
--% Chance of Precip.
Yesterday
High -- | Low -- °F
Precip. -- in
6:47 AM 6:57 PM
Waning Crescent, 3% visible
Pressure 30.30 in
Visibility 10.0 miles
Clouds Clear
Windchill 46 °F
Dew Point 46 °F
Humidity 98%
Rainfall 0.00 in
Snow Depth Not available.
UV 1 out of 12
Pollen 2.90 out of 12
Air Quality Not available.
Flu Activity Not available.
METAR KSFY 221335Z AUTO 00000KT 10SM CLR 10/09 A3030 RMK AO2 T00970089

More Conditions Fewer Conditions

Pressure 30.30 in
Visibility 10.0 miles
Clouds Clear
Windchill 46 °F
Dew Point 46 °F
Humidity 98%
Rainfall 0.00 in
Snow Depth Not available.
UV 1 out of 12
Pollen 2.90 out of 12
Air Quality Not available.
Flu Activity Not available.
METAR KSFY 221335Z AUTO 00000KT 10SM CLR 10/09 A3030 RMK AO2 T00970089

More Conditions Fewer Conditions

10-Day Weather Forecast

Almanac

Astronomy

Sep. 22, 2014 Rise Set
Actual Time 6:47 AM CDT 6:57 PM CDT
Civil Twilight 6:19 AM CDT 7:25 PM CDT
Nautical Twilight 5:46 AM CDT 7:57 PM CDT
Astronomical Twilight 5:13 AM CDT 8:30 PM CDT
Moon 5:14 AM CDT 6:05 PM CDT
Length of Visible Light 13h 05m
Length of Day
12h 09m
Tomorrow will be 2m 48s shorter.
Waning Crescent, 3% of the Moon is Illuminated
Today
Waning Crescent
Sep 24
New
Oct 1
First Quarter
Oct 8
Full
Oct 15
Last Quarter

Today's Extremes

State Highs State Lows

Community

WunderPhotos

Upload Photos

1,755,436 photos uploaded!

WunderBlogs® & News

By Dr. Jeff Masters
Director of Meteorology, Weather Underground
By Kari Strenfel
Meteorologist, Weather Underground
By Christopher C. Burt
Weather Historian, Weather Underground
September 22, 2014
September 22, 2014
September 22, 2014

Nearby

Snow Depth

Station Depth Elevation
No new snow has been reported.

Earthquake Activity

City Distance Mag. Time & Date
No recent earthquake activity has been reported nearby.
Minimum magnitude displayed is 2.5.

Coastal Water Temperatures

Place Temperature
No Stations Reporting

Nearby Weather Stations